Time;durP1;ratioP1;P1;durP2;ratioP2;P2;SDS_P1;SDS_P2;PMS_P1;PMS_P2;Temp;Humidity;BMP_temperature;BMP_pressure;BME280_temperature;BME280_humidity;BME280_pressure;Samples;Min_cycle;Max_cycle;Signal;HPM_P1;HPM_P2
2023/04/28 00:05:06;;;;;;;5.35;1.52;;;;;;;19.99;36.95;101171.19;16113330;19;133970;-38
2023/04/28 00:10:31;;;;;;;3.15;1.10;;;;;;;19.98;36.86;101163.91;16114900;19;129875;-39
2023/04/28 00:15:53;;;;;;;5.28;1.20;;;;;;;19.95;37.29;101135.81;16110663;19;131675;-38
2023/04/28 00:21:16;;;;;;;4.07;1.33;;;;;;;19.93;37.38;101130.53;16111569;19;129708;-38
2023/04/28 00:26:38;;;;;;;4.50;1.40;;;;;;;19.91;37.24;101117.97;16110457;19;131676;-38
2023/04/28 00:32:00;;;;;;;2.08;1.00;;;;;;;19.88;37.10;101080.44;16120472;19;130793;-38
2023/04/28 00:37:22;;;;;;;2.38;0.88;;;;;;;19.87;37.42;101089.88;16125858;19;131113;-38
2023/04/28 00:42:43;;;;;;;6.70;1.48;;;;;;;19.85;37.17;101105.94;16124807;19;131734;-38
2023/04/28 00:48:06;;;;;;;2.53;1.50;;;;;;;19.83;36.96;101139.50;16126635;19;130680;-37
2023/04/28 00:53:29;;;;;;;4.43;2.28;;;;;;;19.80;36.74;101140.00;16123895;19;130757;-38
2023/04/28 00:58:51;;;;;;;2.60;1.50;;;;;;;19.78;37.06;101133.84;16128383;19;133203;-38
2023/04/28 01:04:15;;;;;;;2.92;1.50;;;;;;;19.78;36.87;101130.25;16128547;19;129860;-38
2023/04/28 01:09:37;;;;;;;2.88;1.20;;;;;;;19.78;36.89;101113.59;16122109;19;129841;-38
2023/04/28 01:14:59;;;;;;;5.38;1.55;;;;;;;19.76;36.74;101111.03;16127368;19;129255;-37
2023/04/28 01:20:21;;;;;;;1.75;1.25;;;;;;;19.74;37.17;101107.69;16121907;19;133617;-37
2023/04/28 01:25:43;;;;;;;2.00;0.90;;;;;;;19.72;36.81;101092.34;16125989;19;131279;-37
2023/04/28 01:31:05;;;;;;;5.38;1.40;;;;;;;19.71;37.26;101079.56;16121924;19;131225;-38
2023/04/28 01:36:27;;;;;;;2.33;1.00;;;;;;;19.68;37.08;101073.44;16125447;19;130113;-37
2023/04/28 01:41:49;;;;;;;2.85;1.10;;;;;;;19.67;37.01;101090.34;16114831;19;129669;-38
2023/04/28 01:47:11;;;;;;;1.52;0.80;;;;;;;19.65;37.05;101096.16;16122585;19;130173;-38
2023/04/28 01:52:33;;;;;;;2.92;1.00;;;;;;;19.65;36.82;101081.41;16125659;19;130695;-38
2023/04/28 01:57:57;;;;;;;1.80;1.05;;;;;;;19.64;37.26;101063.94;16126179;19;130569;-38
2023/04/28 02:03:19;;;;;;;1.50;0.80;;;;;;;19.61;36.83;101058.03;16124383;19;131137;-38
2023/04/28 02:08:41;;;;;;;1.70;0.70;;;;;;;19.60;36.91;101040.53;16121886;19;131204;-37
2023/04/28 02:14:03;;;;;;;1.27;0.77;;;;;;;19.58;36.99;101012.19;16123487;19;131125;-37
2023/04/28 02:19:25;;;;;;;2.35;1.10;;;;;;;19.57;37.10;100937.53;16123632;19;129859;-38
2023/04/28 02:24:47;;;;;;;3.50;0.90;;;;;;;19.55;36.90;100892.53;16121347;19;129783;-37
2023/04/28 02:30:09;;;;;;;2.88;0.88;;;;;;;19.55;37.21;100957.22;16121134;19;130829;-37
2023/04/28 02:35:31;;;;;;;3.03;0.90;;;;;;;19.55;37.03;100995.19;16119830;19;130147;-38
2023/04/28 02:41:05;;;;;;;1.42;0.80;;;;;;;19.53;37.11;100996.28;16118088;19;130466;-37
2023/04/28 02:46:27;;;;;;;1.80;1.30;;;;;;;19.51;36.52;101000.41;16120150;19;130160;-38
2023/04/28 02:51:49;;;;;;;1.75;1.17;;;;;;;19.50;36.82;100995.97;16118063;19;132255;-37
2023/04/28 02:57:11;;;;;;;1.88;1.02;;;;;;;19.49;36.60;100991.50;16118529;19;129455;-37
2023/04/28 03:02:32;;;;;;;1.80;1.00;;;;;;;19.48;36.64;100975.94;16115293;19;130363;-37
2023/04/28 03:07:55;;;;;;;2.63;1.00;;;;;;;19.47;37.03;100972.34;16114396;19;131717;-37
2023/04/28 03:13:17;;;;;;;1.77;0.85;;;;;;;19.45;37.00;100966.19;16118824;19;130139;-38
2023/04/28 03:18:39;;;;;;;2.67;1.00;;;;;;;19.45;37.01;100951.47;16113684;19;130891;-37
2023/04/28 03:24:01;;;;;;;1.42;0.95;;;;;;;19.43;37.11;100948.94;16116716;19;129777;-37
2023/04/28 03:29:25;;;;;;;1.30;0.67;;;;;;;19.43;37.00;100950.91;16115466;19;130058;-38
2023/04/28 03:34:47;;;;;;;1.55;0.80;;;;;;;19.41;36.93;100951.13;16119125;19;129906;-38
2023/04/28 03:40:10;;;;;;;3.03;1.10;;;;;;;19.40;36.53;100948.63;16119818;19;129697;-38
2023/04/28 03:45:32;;;;;;;1.50;0.70;;;;;;;19.38;36.75;100930.28;16124859;19;130481;-48
2023/04/28 03:50:54;;;;;;;1.10;0.63;;;;;;;19.38;36.55;100938.63;16133542;19;129193;-49
2023/04/28 03:56:16;;;;;;;1.45;0.75;;;;;;;19.38;36.83;100937.78;16116426;19;130476;-37
2023/04/28 04:01:38;;;;;;;0.90;0.60;;;;;;;19.37;36.79;100931.38;16117488;19;129775;-48
2023/04/28 04:07:01;;;;;;;0.70;0.60;;;;;;;19.36;36.53;100940.78;16113006;19;130654;-38
2023/04/28 04:12:22;;;;;;;0.85;0.70;;;;;;;19.36;36.95;100926.09;16111045;19;130619;-39
2023/04/28 04:17:44;;;;;;;1.65;0.73;;;;;;;19.33;36.85;100930.19;16115590;19;129832;-38
2023/04/28 04:23:06;;;;;;;0.70;0.57;;;;;;;19.33;36.67;100919.09;16112644;19;130767;-38
2023/04/28 04:28:28;;;;;;;1.27;0.82;;;;;;;19.32;36.82;100922.13;16113384;19;131036;-37
2023/04/28 04:33:50;;;;;;;0.60;0.60;;;;;;;19.30;36.76;100910.44;16111453;19;130118;-37
2023/04/28 04:39:12;;;;;;;1.55;0.70;;;;;;;19.30;36.91;100904.91;16112713;19;130357;-39
2023/04/28 04:44:34;;;;;;;1.48;0.75;;;;;;;19.28;36.73;100902.38;16112836;19;131450;-38
2023/04/28 04:49:56;;;;;;;1.45;0.60;;;;;;;19.27;36.94;100903.47;16115035;19;129530;-38
2023/04/28 04:55:17;;;;;;;1.45;1.08;;;;;;;19.26;36.97;100907.34;16113082;19;129643;-38
2023/04/28 05:00:39;;;;;;;2.08;0.90;;;;;;;19.24;36.51;100894.81;16112655;19;129660;-38
2023/04/28 05:06:02;;;;;;;1.23;1.13;;;;;;;19.23;36.69;100905.06;16108916;19;131024;-37
2023/04/28 05:11:24;;;;;;;2.40;0.73;;;;;;;19.24;36.96;100906.75;16111374;19;129403;-38
2023/04/28 05:16:46;;;;;;;2.40;0.70;;;;;;;19.33;36.71;100902.44;16117220;19;129764;-38
2023/04/28 05:22:08;;;;;;;1.10;0.60;;;;;;;19.44;37.11;100914.56;16124938;19;130861;-37
2023/04/28 05:27:30;;;;;;;1.92;0.60;;;;;;;19.51;37.02;100906.06;16120543;19;130594;-37
2023/04/28 05:32:52;;;;;;;0.95;0.50;;;;;;;19.57;36.78;100916.16;16120347;19;131941;-37
2023/04/28 05:38:14;;;;;;;1.00;0.77;;;;;;;19.59;37.01;100894.53;16119126;19;130257;-37
2023/04/28 05:43:36;;;;;;;1.00;0.52;;;;;;;19.60;36.96;100892.63;16119994;19;130712;-38
2023/04/28 05:48:58;;;;;;;1.40;0.70;;;;;;;19.57;36.66;100896.72;16105682;19;131281;-38
2023/04/28 05:54:20;;;;;;;0.68;0.68;;;;;;;19.56;36.77;100917.28;16117991;19;129555;-38
2023/04/28 05:59:42;;;;;;;0.95;0.60;;;;;;;19.53;37.03;100904.72;16127740;19;130721;-38
2023/04/28 06:05:04;;;;;;;1.15;0.73;;;;;;;19.52;36.98;100900.25;16123555;19;130429;-37
2023/04/28 06:10:27;;;;;;;4.25;0.85;;;;;;;19.51;36.97;100903.31;16128308;19;129492;-38
2023/04/28 06:15:49;;;;;;;1.10;0.70;;;;;;;19.49;36.64;100911.03;16126716;19;131900;-37
2023/04/28 06:21:11;;;;;;;1.95;0.85;;;;;;;19.47;36.71;100910.44;16123369;19;131588;-37
2023/04/28 06:26:33;;;;;;;1.45;0.70;;;;;;;19.46;36.82;100906.84;16122455;19;130353;-37
2023/04/28 06:31:56;;;;;;;1.70;0.77;;;;;;;19.44;36.85;100919.28;16120028;19;131258;-37
2023/04/28 06:37:18;;;;;;;2.92;0.40;;;;;;;19.43;36.85;100912.06;16123334;19;129987;-37
2023/04/28 06:42:41;;;;;;;2.47;0.60;;;;;;;19.42;36.67;100915.94;16123007;19;130369;-37
2023/04/28 06:48:03;;;;;;;2.50;0.68;;;;;;;19.40;37.03;100915.34;16123525;19;129206;-36
2023/04/28 06:53:26;;;;;;;2.25;0.63;;;;;;;19.40;36.96;100918.09;16121977;19;130537;-37
2023/04/28 06:58:48;;;;;;;1.75;0.77;;;;;;;19.38;36.74;100913.66;16126944;19;129310;-37
2023/04/28 07:04:10;;;;;;;1.38;0.75;;;;;;;19.37;36.69;100920.28;16118630;19;130675;-37
2023/04/28 07:09:32;;;;;;;1.25;0.68;;;;;;;19.36;36.80;100918.59;16123730;19;129946;-37
2023/04/28 07:14:54;;;;;;;1.13;0.50;;;;;;;19.35;36.65;100903.03;16124349;19;129412;-37
2023/04/28 07:20:16;;;;;;;1.67;0.70;;;;;;;19.35;36.79;100911.38;16121531;19;129686;-37
2023/04/28 07:25:40;;;;;;;0.80;0.57;;;;;;;19.34;36.75;100918.00;16118499;19;130646;-37
2023/04/28 07:31:01;;;;;;;1.80;0.75;;;;;;;19.34;36.77;100920.78;16121396;19;130130;-37
2023/04/28 07:36:23;;;;;;;5.82;1.15;;;;;;;19.33;36.97;100924.66;16120973;19;129583;-37
2023/04/28 07:41:45;;;;;;;4.30;0.80;;;;;;;19.33;37.24;100921.88;16118439;19;130274;-37
2023/04/28 07:47:07;;;;;;;2.22;0.77;;;;;;;19.33;37.06;100921.88;16120465;19;129837;-37
2023/04/28 07:52:30;;;;;;;3.72;0.82;;;;;;;19.33;37.03;100921.03;16119599;19;130750;-38
2023/04/28 07:57:52;;;;;;;4.65;1.10;;;;;;;19.32;36.97;100922.97;16117284;19;130079;-37
2023/04/28 08:03:14;;;;;;;1.15;0.70;;;;;;;19.32;37.27;100914.63;16117366;19;130388;-38
2023/04/28 08:08:36;;;;;;;3.08;0.90;;;;;;;19.30;37.39;100914.06;16116529;19;131964;-37
2023/04/28 08:14:01;;;;;;;2.00;0.90;;;;;;;19.32;37.39;100917.41;16115958;19;130877;-37
2023/04/28 08:19:24;;;;;;;;;;;;;;;19.28;37.44;100907.94;16118069;19;130851;-38
2023/04/28 08:24:45;;;;;;;2.45;0.77;;;;;;;19.37;37.30;100914.72;16118081;19;129119;-37
2023/04/28 08:30:08;;;;;;;1.88;0.70;;;;;;;19.48;37.37;100921.31;16111244;19;131142;-38
2023/04/28 08:35:31;;;;;;;2.28;0.60;;;;;;;19.61;37.14;100919.28;16115994;19;129638;-38
2023/04/28 08:40:53;;;;;;;4.07;0.60;;;;;;;19.73;37.09;100927.50;16110993;19;129545;-37
2023/04/28 08:46:17;;;;;;;3.58;0.75;;;;;;;19.81;37.03;100918.75;16114902;19;132385;-37
2023/04/28 08:51:44;;;;;;;2.13;0.93;;;;;;;19.90;36.82;100916.38;16120445;19;129551;-37
2023/04/28 08:57:10;;;;;;;1.25;0.70;;;;;;;19.97;36.73;100923.44;16131314;19;129519;-37
2023/04/28 09:02:31;;;;;;;;;;;;;;;20.01;36.69;100912.66;16133741;19;129849;-37
2023/04/28 09:07:54;;;;;;;1.20;0.77;;;;;;;20.08;36.35;100926.38;16132462;19;129198;-37
2023/04/28 09:13:25;;;;;;;2.83;0.50;;;;;;;20.12;36.43;100922.00;16128909;19;131272;-37
2023/04/28 09:18:59;;;;;;;2.10;0.50;;;;;;;20.15;36.72;100921.50;16125390;19;131273;-38
2023/04/28 09:24:29;;;;;;;2.88;0.57;;;;;;;20.18;36.55;100922.91;16126326;19;130229;-38
2023/04/28 09:29:52;;;;;;;2.53;0.73;;;;;;;20.15;36.54;100921.50;16130698;19;129904;-38
2023/04/28 09:35:13;;;;;;;3.65;0.68;;;;;;;20.14;36.48;100928.13;16128889;19;129515;-37
2023/04/28 09:41:08;;;;;;;5.82;0.65;;;;;;;20.09;36.40;100928.91;16125657;19;129851;-38
2023/04/28 09:46:30;;;;;;;0.60;0.40;;;;;;;20.05;36.64;100924.13;16123738;19;129092;-37
2023/04/28 09:51:52;;;;;;;1.30;0.70;;;;;;;20.03;36.93;100929.09;16124932;19;129288;-38
2023/04/28 09:57:15;;;;;;;3.45;0.45;;;;;;;20.00;36.97;100933.19;16126193;19;129949;-37
2023/04/28 10:02:37;;;;;;;0.52;0.40;;;;;;;19.96;36.64;100921.75;16122208;19;129931;-37
2023/04/28 10:08:03;;;;;;;2.13;0.53;;;;;;;19.95;36.72;100919.22;16125863;19;129984;-37
2023/04/28 10:13:28;;;;;;;2.00;0.40;;;;;;;19.94;36.65;100920.31;16126063;19;129350;-48
2023/04/28 10:18:52;;;;;;;0.50;0.50;;;;;;;19.92;36.62;100915.03;16129125;19;130546;-48
2023/04/28 10:24:22;;;;;;;1.25;0.40;;;;;;;19.91;36.68;100910.59;16125343;19;129527;-48
2023/04/28 10:29:44;;;;;;;0.98;0.47;;;;;;;19.88;36.75;100915.81;16126797;19;129339;-37
2023/04/28 10:35:24;;;;;;;0.60;0.40;;;;;;;19.86;36.70;100912.44;16126924;19;129719;-37
2023/04/28 10:40:49;;;;;;;1.63;0.43;;;;;;;19.82;36.80;100914.88;16130395;19;129483;-38
2023/04/28 10:46:11;;;;;;;;;;;;;;;19.76;37.11;100915.91;16128711;19;135331;-38
2023/04/28 10:51:34;;;;;;;0.25;0.25;;;;;;;19.77;37.01;100923.13;16124677;19;130249;-37
2023/04/28 10:57:14;;;;;;;1.15;0.50;;;;;;;19.75;37.01;100919.75;16120599;19;129449;-37
2023/04/28 11:02:39;;;;;;;0.98;0.30;;;;;;;19.70;36.96;100917.75;16124561;19;130323;-39
2023/04/28 11:08:23;;;;;;;1.65;0.50;;;;;;;19.67;37.08;100919.13;16123523;19;129317;-37
2023/04/28 11:13:47;;;;;;;1.10;0.50;;;;;;;19.64;37.33;100919.63;16119959;19;131775;-37
2023/04/28 11:19:12;;;;;;;1.25;0.60;;;;;;;19.65;37.22;100926.00;16121621;19;129652;-37
2023/04/28 11:24:33;;;;;;;0.43;0.30;;;;;;;19.64;37.02;100930.72;16123306;19;129596;-37
2023/04/28 11:29:56;;;;;;;1.00;0.30;;;;;;;19.64;37.29;100927.94;16122739;19;129713;-38
2023/04/28 11:35:18;;;;;;;0.40;0.30;;;;;;;19.64;37.11;100935.41;16121347;19;131394;-37
2023/04/28 11:40:55;;;;;;;0.85;0.40;;;;;;;19.63;37.48;100942.91;16120368;19;129850;-37
2023/04/28 11:46:25;;;;;;;0.30;0.30;;;;;;;19.61;37.43;100947.88;16121113;19;129202;-37
2023/04/28 11:51:48;;;;;;;1.65;0.50;;;;;;;19.58;37.19;100956.69;16119586;19;132167;-37
2023/04/28 11:57:18;;;;;;;1.00;0.30;;;;;;;19.60;37.63;100962.84;16120527;19;131729;-37
2023/04/28 12:02:40;;;;;;;0.70;0.20;;;;;;;19.58;37.29;100965.00;16122229;19;129453;-37
2023/04/28 12:08:03;;;;;;;3.80;0.40;;;;;;;19.57;37.23;100971.66;16118561;19;129531;-37
2023/04/28 12:13:25;;;;;;;0.20;0.20;;;;;;;19.56;37.16;100967.22;16119107;19;129754;-37
2023/04/28 12:18:58;;;;;;;0.68;0.30;;;;;;;19.56;37.70;100981.09;16118102;19;131094;-38
2023/04/28 12:24:21;;;;;;;0.50;0.30;;;;;;;19.52;37.58;100996.56;16118098;19;131616;-37
2023/04/28 12:29:45;;;;;;;0.22;0.20;;;;;;;19.50;37.73;100998.72;16115282;19;129358;-37
2023/04/28 12:35:07;;;;;;;1.25;0.20;;;;;;;19.50;37.52;101007.06;16115684;19;129997;-37
2023/04/28 12:40:30;;;;;;;1.25;0.20;;;;;;;19.49;37.74;101010.91;16116678;19;129481;-37
2023/04/28 12:45:53;;;;;;;2.70;0.40;;;;;;;19.50;37.40;101021.78;16115810;19;132264;-37
2023/04/28 12:51:16;;;;;;;1.75;0.40;;;;;;;19.49;37.97;101022.88;16113111;19;130977;-37
2023/04/28 12:56:37;;;;;;;4.47;0.30;;;;;;;19.49;37.87;101022.88;16115090;19;130446;-37
2023/04/28 13:01:59;;;;;;;1.25;0.32;;;;;;;19.48;38.04;101039.75;16115937;19;129716;-38
2023/04/28 13:07:21;;;;;;;3.30;0.70;;;;;;;19.49;37.58;101035.91;16113406;19;131155;-38
2023/04/28 13:12:43;;;;;;;2.92;0.40;;;;;;;19.50;37.95;101040.34;16114463;19;129363;-38
2023/04/28 13:18:05;;;;;;;1.73;0.40;;;;;;;19.50;37.69;101045.91;16115020;19;130633;-48
2023/04/28 13:23:27;;;;;;;3.55;0.40;;;;;;;19.51;37.60;101047.59;16111702;19;129580;-37
2023/04/28 13:28:51;;;;;;;2.83;0.52;;;;;;;19.51;37.92;101053.97;16111974;19;129579;-38
2023/04/28 13:34:16;;;;;;;2.90;0.40;;;;;;;19.51;38.24;101050.38;16112681;19;130541;-38
2023/04/28 13:39:38;;;;;;;5.18;0.50;;;;;;;19.55;38.47;101054.34;16122596;19;129485;-38
2023/04/28 13:44:59;;;;;;;4.43;0.60;;;;;;;19.56;38.21;101049.63;16127920;19;131237;-38
2023/04/28 13:50:21;;;;;;;6.35;0.47;;;;;;;19.63;38.71;101047.53;16130690;19;129798;-38
2023/04/28 13:55:44;;;;;;;7.82;0.45;;;;;;;19.63;38.71;101053.09;16127288;19;131893;-37
2023/04/28 14:01:06;;;;;;;8.10;0.60;;;;;;;19.64;38.31;101057.53;16126687;19;129121;-37
2023/04/28 14:06:28;;;;;;;8.70;0.70;;;;;;;19.62;38.55;101062.50;16127312;19;129429;-37
2023/04/28 14:11:51;;;;;;;15.10;1.52;;;;;;;19.61;38.27;101064.41;16127866;19;135527;-37
2023/04/28 14:17:13;;;;;;;19.85;1.45;;;;;;;19.60;38.25;101061.91;16123975;19;129993;-37
2023/04/28 14:22:35;;;;;;;27.42;1.92;;;;;;;19.58;38.57;101059.38;16126147;19;129525;-37
2023/04/28 14:27:57;;;;;;;12.00;1.48;;;;;;;19.55;38.49;101054.34;16123487;19;129863;-38
2023/04/28 14:33:19;;;;;;;15.27;2.00;;;;;;;19.54;38.54;101063.75;16124792;19;130293;-38
2023/04/28 14:38:42;;;;;;;15.18;1.20;;;;;;;19.51;39.10;101064.25;16126764;19;128786;-39
2023/04/28 14:44:04;;;;;;;4.40;0.80;;;;;;;19.50;39.22;101059.78;16125459;19;129399;-37
2023/04/28 14:49:26;;;;;;;6.88;0.90;;;;;;;19.48;39.38;101056.41;16128809;19;129741;-38
2023/04/28 14:54:48;;;;;;;6.53;0.90;;;;;;;19.45;39.60;101062.44;16122076;19;130882;-39
2023/04/28 15:00:11;;;;;;;6.30;0.70;;;;;;;19.45;39.54;101065.22;16124365;19;129836;-38
2023/04/28 15:05:33;;;;;;;10.30;0.80;;;;;;;19.46;39.90;101058.59;16124077;19;129582;-38
2023/04/28 15:10:54;;;;;;;11.20;0.68;;;;;;;19.46;40.26;101055.81;16120631;19;130262;-38
2023/04/28 15:16:17;;;;;;;5.32;1.00;;;;;;;19.51;40.45;101058.69;16123912;19;130905;-37
2023/04/28 15:21:39;;;;;;;11.32;0.80;;;;;;;19.56;40.47;101055.16;16121331;19;129441;-38
2023/04/28 15:27:02;;;;;;;6.28;0.70;;;;;;;19.64;40.52;101063.94;16120734;19;129580;-38
2023/04/28 15:32:24;;;;;;;6.38;0.75;;;;;;;19.72;40.25;101070.16;16123741;19;130490;-38
2023/04/28 15:37:54;;;;;;;8.10;0.77;;;;;;;19.78;40.52;101060.84;16122397;19;129997;-38
2023/04/28 15:43:16;;;;;;;3.67;0.50;;;;;;;19.82;40.34;101067.56;16123077;19;131208;-37
2023/04/28 15:48:38;;;;;;;8.40;0.60;;;;;;;19.84;40.32;101070.91;16121217;19;128918;-37
2023/04/28 15:54:00;;;;;;;6.38;0.60;;;;;;;19.86;40.58;101065.97;16119323;19;129938;-38
2023/04/28 15:59:23;;;;;;;6.40;0.75;;;;;;;19.84;40.59;101062.59;16117927;19;129413;-38
2023/04/28 16:04:45;;;;;;;5.38;0.85;;;;;;;19.88;40.22;101063.78;16116735;19;131436;-38
2023/04/28 16:10:10;;;;;;;8.10;0.57;;;;;;;19.93;40.23;101066.66;16120628;19;129492;-38
2023/04/28 16:15:33;;;;;;;7.20;0.90;;;;;;;19.92;40.71;101076.09;16114313;19;131192;-38
2023/04/28 16:20:54;;;;;;;12.02;1.77;;;;;;;19.90;40.86;101067.16;16119613;19;129476;-38
2023/04/28 16:26:16;;;;;;;11.70;2.38;;;;;;;19.89;40.51;101076.56;16118104;19;130724;-38
2023/04/28 16:31:38;;;;;;;8.27;1.52;;;;;;;19.87;40.69;101084.31;16116893;19;130151;-38
2023/04/28 16:37:01;;;;;;;9.05;1.80;;;;;;;19.85;41.31;101078.16;16119375;19;129589;-38
2023/04/28 16:42:23;;;;;;;7.88;2.58;;;;;;;19.95;41.37;101097.78;16120835;19;130077;-38
2023/04/28 16:47:45;;;;;;;12.10;2.72;;;;;;;20.07;41.31;101089.41;16117456;19;131799;-38
2023/04/28 16:53:07;;;;;;;11.40;3.17;;;;;;;20.16;41.13;101095.38;16111905;19;129720;-38
2023/04/28 16:58:29;;;;;;;15.40;2.63;;;;;;;20.20;41.32;101093.75;16107931;19;131324;-38
2023/04/28 17:03:51;;;;;;;21.20;3.97;;;;;;;20.24;41.46;101105.25;16113641;19;129658;-39
2023/04/28 17:09:13;;;;;;;16.45;3.85;;;;;;;20.28;41.35;101103.63;16111807;19;131359;-38
2023/04/28 17:14:38;;;;;;;13.18;3.30;;;;;;;20.32;41.75;101106.72;16123597;19;131788;-38
2023/04/28 17:20:01;;;;;;;32.23;3.70;;;;;;;20.36;42.20;101110.69;16128257;19;129082;-37
2023/04/28 17:25:22;;;;;;;26.67;3.58;;;;;;;20.41;41.92;101113.56;16127932;19;130519;-37
2023/04/28 17:30:44;;;;;;;18.20;3.95;;;;;;;20.41;42.62;101110.78;16126332;19;131344;-38
2023/04/28 17:36:08;;;;;;;22.38;3.35;;;;;;;20.45;42.46;101123.91;16126279;19;129836;-38
2023/04/28 17:41:30;;;;;;;19.05;2.75;;;;;;;20.52;42.75;101137.63;16124871;19;130621;-40
2023/04/28 17:46:52;;;;;;;13.75;3.08;;;;;;;20.55;42.43;101137.13;16126504;19;129481;-38
2023/04/28 17:52:14;;;;;;;23.02;3.30;;;;;;;20.61;42.41;101138.06;16124967;19;129177;-38
2023/04/28 17:57:36;;;;;;;14.05;3.08;;;;;;;20.64;42.41;101150.59;16126181;19;130299;-38
2023/04/28 18:03:01;;;;;;;17.38;2.60;;;;;;;20.66;42.68;101153.97;16128107;19;129533;-38
2023/04/28 18:08:23;;;;;;;21.33;2.53;;;;;;;20.68;42.41;101160.09;16124859;19;131050;-38
2023/04/28 18:13:45;;;;;;;13.00;2.67;;;;;;;20.70;42.56;101169.00;16122926;19;129381;-38
2023/04/28 18:19:07;;;;;;;8.95;1.73;;;;;;;20.70;42.38;101164.31;16124284;19;131339;-38
2023/04/28 18:24:29;;;;;;;12.70;2.15;;;;;;;20.69;42.67;101164.53;16121161;19;129773;-46
2023/04/28 18:29:51;;;;;;;21.08;2.60;;;;;;;20.68;42.34;101171.19;16126420;19;129837;-48
2023/04/28 18:35:13;;;;;;;16.63;2.63;;;;;;;20.66;42.36;101178.97;16120627;19;130557;-47
2023/04/28 18:40:37;;;;;;;12.50;1.85;;;;;;;20.66;42.68;101182.59;16126406;19;129280;-47
2023/04/28 18:46:03;;;;;;;21.83;2.33;;;;;;;20.66;42.69;101181.75;16126366;19;131256;-47
2023/04/28 18:51:24;;;;;;;18.98;3.13;;;;;;;20.64;42.79;101187.56;16122980;19;130917;-48
2023/04/28 18:56:51;;;;;;;17.50;2.53;;;;;;;20.56;42.54;101194.38;16122301;19;131534;-47
2023/04/28 19:02:13;;;;;;;20.88;3.42;;;;;;;20.50;42.33;101189.84;16118816;19;130087;-48
2023/04/28 19:07:35;;;;;;;17.17;2.65;;;;;;;20.44;42.17;101193.63;16116581;19;130015;-48
2023/04/28 19:12:57;;;;;;;14.88;2.85;;;;;;;20.46;42.50;101208.09;16123261;19;128983;-47
2023/04/28 19:18:19;;;;;;;31.45;3.08;;;;;;;20.50;42.19;101214.84;16121077;19;130545;-46
2023/04/28 19:23:42;;;;;;;18.00;2.25;;;;;;;20.56;42.52;101230.50;16119521;19;131304;-46
2023/04/28 19:29:03;;;;;;;24.75;2.65;;;;;;;20.60;42.29;101253.13;16115489;19;130183;-46
2023/04/28 19:34:25;;;;;;;19.20;2.40;;;;;;;20.61;42.32;101268.69;16115472;19;129419;-46
2023/04/28 19:39:49;;;;;;;13.52;2.20;;;;;;;20.63;42.21;101268.44;16112036;19;130787;-47
2023/04/28 19:45:11;;;;;;;16.58;2.63;;;;;;;20.66;42.01;101276.28;16117651;19;129905;-46
2023/04/28 19:50:34;;;;;;;10.48;2.40;;;;;;;20.66;42.30;101276.28;16117629;19;130125;-47
2023/04/28 19:56:00;;;;;;;21.25;3.20;;;;;;;20.69;42.11;101284.09;16117071;19;129936;-48
2023/04/28 20:01:22;;;;;;;11.73;2.13;;;;;;;20.70;41.85;101292.19;16117624;19;129649;-48
2023/04/28 20:06:44;;;;;;;9.55;2.38;;;;;;;20.73;41.99;101293.63;16114398;19;129265;-48
2023/04/28 20:12:07;;;;;;;12.20;2.30;;;;;;;20.75;41.99;101292.31;16113796;19;128987;-47
2023/04/28 20:17:29;;;;;;;14.60;2.22;;;;;;;20.78;41.83;101310.44;16113304;19;131848;-48
2023/04/28 20:22:51;;;;;;;12.07;2.35;;;;;;;20.77;42.23;101313.44;16113966;19;129761;-48
2023/04/28 20:28:13;;;;;;;20.40;3.10;;;;;;;20.73;41.86;101313.09;16115792;19;129285;-48
2023/04/28 20:33:35;;;;;;;16.15;2.30;;;;;;;20.71;42.34;101316.13;16112330;19;129732;-47
2023/04/28 20:38:57;;;;;;;22.60;3.08;;;;;;;20.69;41.74;101323.88;16113129;19;128967;-47
2023/04/28 20:44:19;;;;;;;12.35;3.55;;;;;;;20.66;41.55;101326.31;16112317;19;129834;-46
2023/04/28 20:49:41;;;;;;;15.60;3.28;;;;;;;20.60;42.02;101334.56;16125162;19;131373;-49
2023/04/28 20:55:03;;;;;;;9.20;2.85;;;;;;;20.56;41.82;101343.66;16129105;19;131796;-47
2023/04/28 21:00:25;;;;;;;10.18;3.85;;;;;;;20.51;42.02;101344.41;16128369;19;129611;-48
2023/04/28 21:05:47;;;;;;;11.57;4.05;;;;;;;20.49;41.49;101346.56;16128529;19;130603;-48
2023/04/28 21:11:13;;;;;;;11.25;3.42;;;;;;;20.45;42.10;101356.50;16126563;19;129336;-47
2023/04/28 21:16:35;;;;;;;16.50;4.18;;;;;;;20.42;41.96;101354.22;16126395;19;129631;-47
2023/04/28 21:21:58;;;;;;;10.02;5.28;;;;;;;20.38;41.46;101358.59;16126061;19;129711;-47
2023/04/28 21:27:19;;;;;;;10.88;3.88;;;;;;;20.32;41.87;101354.88;16122112;19;129893;-48
2023/04/28 21:32:41;;;;;;;13.15;4.82;;;;;;;20.28;41.45;101350.88;16124386;19;129651;-47
2023/04/28 21:38:03;;;;;;;11.40;4.72;;;;;;;20.22;41.30;101358.28;16124259;19;130237;-48
2023/04/28 21:43:25;;;;;;;8.57;4.32;;;;;;;20.18;41.65;101357.09;16124121;19;129548;-48
2023/04/28 21:48:47;;;;;;;7.88;3.95;;;;;;;20.13;41.27;101359.75;16124455;19;130483;-47
2023/04/28 21:54:08;;;;;;;7.20;3.90;;;;;;;20.09;41.37;101364.97;16124121;19;129373;-48
2023/04/28 21:59:30;;;;;;;9.02;4.32;;;;;;;20.06;41.49;101353.50;16124535;19;130103;-47
2023/04/28 22:04:53;;;;;;;11.95;4.97;;;;;;;20.02;41.34;101357.88;16124247;19;130589;-47
2023/04/28 22:10:15;;;;;;;7.85;3.58;;;;;;;19.98;41.23;101354.72;16123399;19;129435;-48
2023/04/28 22:15:37;;;;;;;8.63;3.83;;;;;;;19.95;41.28;101369.06;16123041;19;129774;-48
2023/04/28 22:20:59;;;;;;;6.50;4.35;;;;;;;19.90;41.14;101361.47;16123608;19;131061;-46
2023/04/28 22:26:22;;;;;;;11.00;3.47;;;;;;;19.87;40.97;101367.50;16122733;19;130674;-38
2023/04/28 22:31:44;;;;;;;10.80;4.60;;;;;;;19.84;40.95;101368.84;16124576;19;131263;-39
2023/04/28 22:37:06;;;;;;;6.68;4.03;;;;;;;19.81;41.27;101372.09;16121754;19;130344;-39
2023/04/28 22:42:27;;;;;;;10.73;4.22;;;;;;;19.79;41.12;101390.09;16121033;19;129823;-38
2023/04/28 22:47:49;;;;;;;9.90;4.68;;;;;;;19.77;41.05;101395.06;16119954;19;130193;-39
2023/04/28 22:53:11;;;;;;;7.10;4.80;;;;;;;19.74;40.69;101398.31;16117952;19;130120;-39
2023/04/28 22:58:33;;;;;;;9.40;5.38;;;;;;;19.72;41.11;101411.56;16121503;19;129641;-38
2023/04/28 23:03:55;;;;;;;10.35;6.00;;;;;;;19.67;40.78;101413.16;16120517;19;129639;-38
2023/04/28 23:09:18;;;;;;;9.52;5.72;;;;;;;19.63;40.53;101420.28;16114928;19;131048;-38
2023/04/28 23:14:40;;;;;;;10.88;5.93;;;;;;;19.60;40.33;101415.19;16119904;19;131697;-43
2023/04/28 23:20:02;;;;;;;9.25;5.95;;;;;;;19.57;40.19;101415.69;16117664;19;129582;-38
2023/04/28 23:25:24;;;;;;;6.90;5.45;;;;;;;19.55;40.23;101423.44;16118741;19;131078;-38
2023/04/28 23:30:46;;;;;;;9.98;5.57;;;;;;;19.52;40.08;101427.50;16116367;19;129719;-38
2023/04/28 23:36:08;;;;;;;9.55;6.10;;;;;;;19.51;39.95;101424.97;16117406;19;130129;-38
2023/04/28 23:41:30;;;;;;;9.70;5.70;;;;;;;19.49;40.04;101432.69;16115749;19;129682;-38
2023/04/28 23:46:52;;;;;;;10.27;5.90;;;;;;;19.47;40.16;101423.75;16118226;19;130714;-38
2023/04/28 23:52:18;;;;;;;8.88;5.45;;;;;;;19.45;40.13;101428.69;16114737;19;131094;-37
2023/04/28 23:57:40;;;;;;;8.23;5.35;;;;;;;19.43;39.92;101428.13;16116614;19;129630;-38
